sensor_id;sensor_type;location;lat;lon;timestamp;pressure;altitude;pressure_sealevel;temperature;humidity
47809;BME280;33573;38.790;-77.084;2023-05-02T00:22:09;99382.72;;;19.54;25.54
47809;BME280;33573;38.790;-77.084;2023-05-02T00:29:18;99384.18;;;18.55;27.31
47809;BME280;33573;38.790;-77.084;2023-05-02T00:31:43;99385.12;;;18.47;27.08
47809;BME280;33573;38.790;-77.084;2023-05-02T00:34:09;99383.45;;;18.58;27.07
47809;BME280;33573;38.790;-77.084;2023-05-02T00:36:35;99384.62;;;18.38;27.32
47809;BME280;33573;38.790;-77.084;2023-05-02T00:38:55;99388.53;;;18.28;27.62
47809;BME280;33573;38.790;-77.084;2023-05-02T00:41:25;99395.81;;;18.25;27.06
47809;BME280;33573;38.790;-77.084;2023-05-02T00:43:52;99391.94;;;19.27;26.50
47809;BME280;33573;38.790;-77.084;2023-05-02T00:46:16;99397.30;;;19.69;25.95
47809;BME280;33573;38.790;-77.084;2023-05-02T00:48:41;99392.91;;;20.28;25.05
47809;BME280;33573;38.790;-77.084;2023-05-02T00:53:33;99395.96;;;20.48;25.39
47809;BME280;33573;38.790;-77.084;2023-05-02T00:55:53;99401.84;;;20.50;25.09
47809;BME280;33573;38.790;-77.084;2023-05-02T00:58:19;99403.19;;;20.36;24.93
47809;BME280;33573;38.790;-77.084;2023-05-02T01:00:55;99402.50;;;19.81;25.64
47809;BME280;33573;38.790;-77.084;2023-05-02T01:03:16;99406.25;;;19.83;25.85
47809;BME280;33573;38.790;-77.084;2023-05-02T01:05:45;99408.93;;;19.40;26.23
47809;BME280;33573;38.790;-77.084;2023-05-02T01:08:09;99410.48;;;19.33;26.51
47809;BME280;33573;38.790;-77.084;2023-05-02T01:10:53;99411.97;;;19.59;26.28
47809;BME280;33573;38.790;-77.084;2023-05-02T01:15:20;99430.56;;;18.74;27.71
47809;BME280;33573;38.790;-77.084;2023-05-02T01:17:43;99430.85;;;18.62;28.06
47809;BME280;33573;38.790;-77.084;2023-05-02T01:20:11;99444.60;;;18.25;28.18
47809;BME280;33573;38.790;-77.084;2023-05-02T01:22:39;99447.62;;;18.22;27.74
47809;BME280;33573;38.790;-77.084;2023-05-02T01:25:13;99455.75;;;18.66;27.43
47809;BME280;33573;38.790;-77.084;2023-05-02T01:32:21;99455.99;;;19.70;26.15
47809;BME280;33573;38.790;-77.084;2023-05-02T01:39:47;99474.23;;;19.65;25.95
47809;BME280;33573;38.790;-77.084;2023-05-02T01:44:52;99480.34;;;19.37;26.16
47809;BME280;33573;38.790;-77.084;2023-05-02T01:46:54;99484.83;;;19.15;26.50
47809;BME280;33573;38.790;-77.084;2023-05-02T01:51:43;99487.29;;;18.55;27.70
47809;BME280;33573;38.790;-77.084;2023-05-02T01:54:05;99489.16;;;18.15;28.70
47809;BME280;33573;38.790;-77.084;2023-05-02T01:56:31;99496.10;;;18.45;27.40
47809;BME280;33573;38.790;-77.084;2023-05-02T01:58:56;99502.58;;;18.57;27.20
47809;BME280;33573;38.790;-77.084;2023-05-02T02:01:26;99501.16;;;18.34;27.24
47809;BME280;33573;38.790;-77.084;2023-05-02T02:03:45;99502.09;;;18.68;27.11
47809;BME280;33573;38.790;-77.084;2023-05-02T02:06:12;99497.77;;;18.25;27.74
47809;BME280;33573;38.790;-77.084;2023-05-02T02:08:41;99495.43;;;18.58;27.51
47809;BME280;33573;38.790;-77.084;2023-05-02T02:13:38;99498.26;;;18.15;27.63
47809;BME280;33573;38.790;-77.084;2023-05-02T02:15:56;99493.49;;;18.85;27.38
47809;BME280;33573;38.790;-77.084;2023-05-02T02:18:29;99500.11;;;18.65;27.31
47809;BME280;33573;38.790;-77.084;2023-05-02T02:20:44;99496.87;;;19.03;27.02
47809;BME280;33573;38.790;-77.084;2023-05-02T02:23:09;99502.82;;;18.91;27.31
47809;BME280;33573;38.790;-77.084;2023-05-02T02:25:35;99498.98;;;18.78;27.72
47809;BME280;33573;38.790;-77.084;2023-05-02T02:28:00;99494.98;;;18.96;27.00
47809;BME280;33573;38.790;-77.084;2023-05-02T02:30:25;99489.37;;;18.89;27.59
47809;BME280;33573;38.790;-77.084;2023-05-02T02:32:50;99491.76;;;19.15;27.61
47809;BME280;33573;38.790;-77.084;2023-05-02T02:35:15;99485.11;;;18.50;27.53
47809;BME280;33573;38.790;-77.084;2023-05-02T02:37:47;99481.96;;;18.52;27.37
47809;BME280;33573;38.790;-77.084;2023-05-02T02:40:15;99481.03;;;18.63;27.39
47809;BME280;33573;38.790;-77.084;2023-05-02T02:42:43;99475.65;;;18.29;27.57
47809;BME280;33573;38.790;-77.084;2023-05-02T02:45:04;99471.12;;;18.47;27.70
47809;BME280;33573;38.790;-77.084;2023-05-02T02:47:35;99470.10;;;17.96;28.56
47809;BME280;33573;38.790;-77.084;2023-05-02T02:50:01;99473.70;;;18.03;27.99
47809;BME280;33573;38.790;-77.084;2023-05-02T02:52:26;99465.74;;;18.26;28.01
47809;BME280;33573;38.790;-77.084;2023-05-02T02:54:43;99458.54;;;17.93;28.38
47809;BME280;33573;38.790;-77.084;2023-05-02T02:57:10;99456.21;;;18.39;27.51
47809;BME280;33573;38.790;-77.084;2023-05-02T02:59:38;99455.83;;;18.50;27.70
47809;BME280;33573;38.790;-77.084;2023-05-02T03:02:01;99457.88;;;18.89;27.48
47809;BME280;33573;38.790;-77.084;2023-05-02T03:04:27;99454.78;;;18.44;27.65
47809;BME280;33573;38.790;-77.084;2023-05-02T03:06:46;99454.69;;;18.45;27.31
47809;BME280;33573;38.790;-77.084;2023-05-02T03:09:14;99451.66;;;18.14;27.39
47809;BME280;33573;38.790;-77.084;2023-05-02T03:11:37;99456.44;;;18.45;27.44
47809;BME280;33573;38.790;-77.084;2023-05-02T03:14:03;99459.72;;;18.19;27.53
47809;BME280;33573;38.790;-77.084;2023-05-02T03:16:33;99459.33;;;17.99;27.55
47809;BME280;33573;38.790;-77.084;2023-05-02T03:18:58;99458.02;;;18.04;27.42
47809;BME280;33573;38.790;-77.084;2023-05-02T03:21:24;99465.80;;;18.01;27.85
47809;BME280;33573;38.790;-77.084;2023-05-02T03:23:44;99469.45;;;18.06;27.96
47809;BME280;33573;38.790;-77.084;2023-05-02T03:26:10;99468.89;;;18.38;27.66
47809;BME280;33573;38.790;-77.084;2023-05-02T03:28:40;99469.82;;;18.08;28.17
47809;BME280;33573;38.790;-77.084;2023-05-02T03:31:00;99470.03;;;18.24;27.93
47809;BME280;33573;38.790;-77.084;2023-05-02T03:33:31;99473.33;;;18.30;27.33
47809;BME280;33573;38.790;-77.084;2023-05-02T03:36:07;99471.66;;;18.22;27.71
47809;BME280;33573;38.790;-77.084;2023-05-02T03:38:31;99473.33;;;18.54;27.39
47809;BME280;33573;38.790;-77.084;2023-05-02T03:40:47;99475.18;;;18.35;27.90
47809;BME280;33573;38.790;-77.084;2023-05-02T03:43:08;99479.01;;;18.40;27.96
47809;BME280;33573;38.790;-77.084;2023-05-02T03:45:34;99473.66;;;17.95;27.80
47809;BME280;33573;38.790;-77.084;2023-05-02T03:48:03;99462.99;;;17.57;27.89
47809;BME280;33573;38.790;-77.084;2023-05-02T03:50:29;99460.15;;;17.69;28.31
47809;BME280;33573;38.790;-77.084;2023-05-02T03:52:54;99458.21;;;17.41;28.11
47809;BME280;33573;38.790;-77.084;2023-05-02T03:55:15;99458.76;;;17.58;27.72
47809;BME280;33573;38.790;-77.084;2023-05-02T03:57:40;99460.44;;;17.87;28.25
47809;BME280;33573;38.790;-77.084;2023-05-02T04:00:08;99458.07;;;17.88;27.98
47809;BME280;33573;38.790;-77.084;2023-05-02T04:02:31;99451.71;;;18.13;27.90
47809;BME280;33573;38.790;-77.084;2023-05-02T04:04:56;99443.09;;;18.22;27.72
47809;BME280;33573;38.790;-77.084;2023-05-02T04:07:26;99442.04;;;18.10;27.57
47809;BME280;33573;38.790;-77.084;2023-05-02T04:09:47;99436.48;;;18.07;27.32
47809;BME280;33573;38.790;-77.084;2023-05-02T04:12:15;99432.98;;;18.08;28.00
47809;BME280;33573;38.790;-77.084;2023-05-02T04:14:43;99429.26;;;18.22;28.21
47809;BME280;33573;38.790;-77.084;2023-05-02T04:17:03;99429.39;;;17.69;28.27
47809;BME280;33573;38.790;-77.084;2023-05-02T04:19:34;99430.97;;;17.52;27.81
47809;BME280;33573;38.790;-77.084;2023-05-02T04:21:54;99429.93;;;17.50;28.47
47809;BME280;33573;38.790;-77.084;2023-05-02T04:24:25;99428.80;;;17.28;28.37
47809;BME280;33573;38.790;-77.084;2023-05-02T04:26:45;99428.67;;;17.38;27.99
47809;BME280;33573;38.790;-77.084;2023-05-02T04:29:10;99426.08;;;17.54;28.08
47809;BME280;33573;38.790;-77.084;2023-05-02T04:31:36;99420.17;;;17.27;28.42
47809;BME280;33573;38.790;-77.084;2023-05-02T04:34:01;99416.75;;;17.26;28.02
47809;BME280;33573;38.790;-77.084;2023-05-02T04:36:27;99414.45;;;17.67;28.39
47809;BME280;33573;38.790;-77.084;2023-05-02T04:38:52;99417.23;;;17.97;27.69
47809;BME280;33573;38.790;-77.084;2023-05-02T04:41:17;99415.21;;;18.04;27.02
47809;BME280;33573;38.790;-77.084;2023-05-02T04:43:48;99409.79;;;17.98;27.25
47809;BME280;33573;38.790;-77.084;2023-05-02T04:46:08;99412.64;;;17.64;27.59
47809;BME280;33573;38.790;-77.084;2023-05-02T04:48:34;99417.13;;;17.74;28.23
47809;BME280;33573;38.790;-77.084;2023-05-02T04:51:00;99416.73;;;17.58;28.01
47809;BME280;33573;38.790;-77.084;2023-05-02T04:53:30;99407.19;;;17.34;28.12
47809;BME280;33573;38.790;-77.084;2023-05-02T04:55:55;99400.29;;;17.42;28.21
47809;BME280;33573;38.790;-77.084;2023-05-02T05:00:50;99391.28;;;17.19;28.14
47809;BME280;33573;38.790;-77.084;2023-05-02T05:03:11;99391.68;;;17.32;28.18
47809;BME280;33573;38.790;-77.084;2023-05-02T05:05:32;99388.71;;;17.37;28.49
47809;BME280;33573;38.790;-77.084;2023-05-02T05:07:58;99389.40;;;17.33;28.26
47809;BME280;33573;38.790;-77.084;2023-05-02T05:10:22;99385.10;;;17.49;27.78
47809;BME280;33573;38.790;-77.084;2023-05-02T05:12:48;99381.53;;;17.72;28.00
47809;BME280;33573;38.790;-77.084;2023-05-02T05:15:23;99379.69;;;17.74;27.94
47809;BME280;33573;38.790;-77.084;2023-05-02T05:17:39;99373.64;;;17.76;27.55
47809;BME280;33573;38.790;-77.084;2023-05-02T05:20:05;99371.28;;;17.71;27.83
47809;BME280;33573;38.790;-77.084;2023-05-02T05:22:29;99366.37;;;17.58;27.76
47809;BME280;33573;38.790;-77.084;2023-05-02T05:24:55;99362.91;;;17.32;28.08
47809;BME280;33573;38.790;-77.084;2023-05-02T05:27:25;99356.05;;;17.08;28.35
47809;BME280;33573;38.790;-77.084;2023-05-02T05:29:51;99352.84;;;16.96;28.66
47809;BME280;33573;38.790;-77.084;2023-05-02T05:32:11;99351.23;;;16.67;28.60
47809;BME280;33573;38.790;-77.084;2023-05-02T05:34:38;99350.23;;;17.34;28.49
47809;BME280;33573;38.790;-77.084;2023-05-02T05:37:02;99350.94;;;16.88;28.53
47809;BME280;33573;38.790;-77.084;2023-05-02T05:39:28;99348.41;;;17.28;28.24
47809;BME280;33573;38.790;-77.084;2023-05-02T05:41:58;99346.50;;;17.24;28.20
47809;BME280;33573;38.790;-77.084;2023-05-02T05:44:23;99343.92;;;17.40;28.31
47809;BME280;33573;38.790;-77.084;2023-05-02T05:46:49;99340.28;;;17.45;28.29
47809;BME280;33573;38.790;-77.084;2023-05-02T05:49:15;99342.03;;;17.63;27.56
47809;BME280;33573;38.790;-77.084;2023-05-02T05:51:40;99341.78;;;17.24;27.74
47809;BME280;33573;38.790;-77.084;2023-05-02T05:54:05;99337.70;;;17.57;27.90
47809;BME280;33573;38.790;-77.084;2023-05-02T05:56:32;99328.71;;;17.49;28.18
47809;BME280;33573;38.790;-77.084;2023-05-02T05:58:51;99321.97;;;17.37;28.43
47809;BME280;33573;38.790;-77.084;2023-05-02T06:01:16;99316.75;;;16.95;28.53
47809;BME280;33573;38.790;-77.084;2023-05-02T06:03:45;99313.23;;;16.92;28.40
47809;BME280;33573;38.790;-77.084;2023-05-02T06:06:07;99311.45;;;16.71;28.80
47809;BME280;33573;38.790;-77.084;2023-05-02T06:08:33;99307.94;;;17.15;28.33
47809;BME280;33573;38.790;-77.084;2023-05-02T06:10:58;99295.24;;;16.81;28.41
47809;BME280;33573;38.790;-77.084;2023-05-02T06:13:24;99295.27;;;17.09;27.81
47809;BME280;33573;38.790;-77.084;2023-05-02T06:15:49;99289.51;;;17.25;27.97
47809;BME280;33573;38.790;-77.084;2023-05-02T06:18:14;99285.73;;;17.19;27.85
47809;BME280;33573;38.790;-77.084;2023-05-02T06:20:49;99287.45;;;17.28;28.11
47809;BME280;33573;38.790;-77.084;2023-05-02T06:23:10;99284.56;;;17.31;28.27
47809;BME280;33573;38.790;-77.084;2023-05-02T06:25:31;99284.03;;;17.59;27.67
47809;BME280;33573;38.790;-77.084;2023-05-02T06:27:57;99277.37;;;17.55;27.93
47809;BME280;33573;38.790;-77.084;2023-05-02T06:30:21;99271.11;;;17.60;27.70
47809;BME280;33573;38.790;-77.084;2023-05-02T06:32:52;99269.94;;;17.40;27.69
47809;BME280;33573;38.790;-77.084;2023-05-02T06:35:12;99261.21;;;17.41;28.45
47809;BME280;33573;38.790;-77.084;2023-05-02T06:37:43;99257.94;;;17.18;28.42
47809;BME280;33573;38.790;-77.084;2023-05-02T06:40:04;99256.93;;;17.32;28.15
47809;BME280;33573;38.790;-77.084;2023-05-02T06:42:29;99254.80;;;16.89;28.32
47809;BME280;33573;38.790;-77.084;2023-05-02T06:44:59;99254.04;;;16.80;28.64
47809;BME280;33573;38.790;-77.084;2023-05-02T06:47:19;99257.73;;;16.98;28.40
47809;BME280;33573;38.790;-77.084;2023-05-02T06:49:55;99260.25;;;17.11;27.99
47809;BME280;33573;38.790;-77.084;2023-05-02T06:52:15;99263.16;;;17.16;28.28
47809;BME280;33573;38.790;-77.084;2023-05-02T06:54:41;99260.60;;;17.43;27.64
47809;BME280;33573;38.790;-77.084;2023-05-02T06:57:10;99265.40;;;17.43;28.18
47809;BME280;33573;38.790;-77.084;2023-05-02T06:59:26;99264.09;;;17.44;27.42
47809;BME280;33573;38.790;-77.084;2023-05-02T07:01:52;99266.58;;;17.58;27.56
47809;BME280;33573;38.790;-77.084;2023-05-02T07:04:17;99268.25;;;17.42;28.01
47809;BME280;33573;38.790;-77.084;2023-05-02T07:06:48;99267.18;;;17.39;27.65
47809;BME280;33573;38.790;-77.084;2023-05-02T07:09:08;99269.13;;;17.16;28.09
47809;BME280;33573;38.790;-77.084;2023-05-02T07:11:43;99270.83;;;17.03;28.25
47809;BME280;33573;38.790;-77.084;2023-05-02T07:14:04;99269.64;;;16.94;28.15
47809;BME280;33573;38.790;-77.084;2023-05-02T07:16:29;99276.29;;;17.11;28.32
47809;BME280;33573;38.790;-77.084;2023-05-02T07:19:00;99277.16;;;17.16;28.46
47809;BME280;33573;38.790;-77.084;2023-05-02T07:21:20;99283.02;;;17.22;28.25
47809;BME280;33573;38.790;-77.084;2023-05-02T07:23:45;99277.44;;;17.04;28.35
47809;BME280;33573;38.790;-77.084;2023-05-02T07:26:12;99272.16;;;17.16;28.16
47809;BME280;33573;38.790;-77.084;2023-05-02T07:28:36;99275.52;;;17.19;28.26
47809;BME280;33573;38.790;-77.084;2023-05-02T07:30:57;99274.25;;;17.19;28.21
47809;BME280;33573;38.790;-77.084;2023-05-02T07:33:22;99273.90;;;17.44;28.17
47809;BME280;33573;38.790;-77.084;2023-05-02T07:35:53;99273.39;;;17.22;28.57
47809;BME280;33573;38.790;-77.084;2023-05-02T07:38:13;99270.76;;;17.60;28.26
47809;BME280;33573;38.790;-77.084;2023-05-02T07:40:38;99269.19;;;17.00;28.68
47809;BME280;33573;38.790;-77.084;2023-05-02T07:43:09;99270.29;;;16.93;28.49
47809;BME280;33573;38.790;-77.084;2023-05-02T07:48:00;99276.59;;;16.87;28.52
47809;BME280;33573;38.790;-77.084;2023-05-02T07:50:20;99279.56;;;16.85;28.62
47809;BME280;33573;38.790;-77.084;2023-05-02T07:52:46;99281.82;;;16.85;28.48
47809;BME280;33573;38.790;-77.084;2023-05-02T07:55:11;99287.00;;;16.74;28.79
47809;BME280;33573;38.790;-77.084;2023-05-02T07:57:36;99288.92;;;17.16;28.60
47809;BME280;33573;38.790;-77.084;2023-05-02T08:00:02;99291.06;;;17.11;28.83
47809;BME280;33573;38.790;-77.084;2023-05-02T08:02:27;99289.58;;;17.35;28.59
47809;BME280;33573;38.790;-77.084;2023-05-02T08:04:53;99291.23;;;17.43;28.64
47809;BME280;33573;38.790;-77.084;2023-05-02T08:07:23;99293.35;;;17.29;28.30
47809;BME280;33573;38.790;-77.084;2023-05-02T08:09:49;99292.81;;;17.34;28.30
47809;BME280;33573;38.790;-77.084;2023-05-02T08:12:09;99291.03;;;17.11;28.54
47809;BME280;33573;38.790;-77.084;2023-05-02T08:14:35;99290.27;;;17.23;28.62
47809;BME280;33573;38.790;-77.084;2023-05-02T08:17:05;99290.59;;;17.13;29.22
47809;BME280;33573;38.790;-77.084;2023-05-02T08:19:30;99293.20;;;16.90;29.24
47809;BME280;33573;38.790;-77.084;2023-05-02T08:21:52;99299.28;;;16.91;29.09
47809;BME280;33573;38.790;-77.084;2023-05-02T08:24:21;99302.85;;;17.09;29.01
47809;BME280;33573;38.790;-77.084;2023-05-02T08:26:42;99304.24;;;16.97;29.24
47809;BME280;33573;38.790;-77.084;2023-05-02T08:29:07;99311.03;;;16.80;29.18
47809;BME280;33573;38.790;-77.084;2023-05-02T08:31:32;99326.60;;;17.02;29.15
47809;BME280;33573;38.790;-77.084;2023-05-02T08:34:03;99325.08;;;17.21;28.84
47809;BME280;33573;38.790;-77.084;2023-05-02T08:36:24;99336.13;;;17.33;28.86
47809;BME280;33573;38.790;-77.084;2023-05-02T08:38:49;99344.15;;;17.65;28.74
47809;BME280;33573;38.790;-77.084;2023-05-02T08:41:15;99351.05;;;17.06;28.75
47809;BME280;33573;38.790;-77.084;2023-05-02T08:43:45;99351.53;;;16.98;29.01
47809;BME280;33573;38.790;-77.084;2023-05-02T08:46:06;99360.48;;;17.16;29.07
47809;BME280;33573;38.790;-77.084;2023-05-02T08:48:31;99367.27;;;16.78;29.23
47809;BME280;33573;38.790;-77.084;2023-05-02T08:51:02;99375.92;;;17.01;29.22
47809;BME280;33573;38.790;-77.084;2023-05-02T08:53:22;99375.24;;;16.70;29.24
47809;BME280;33573;38.790;-77.084;2023-05-02T08:55:48;99379.24;;;16.83;29.57
47809;BME280;33573;38.790;-77.084;2023-05-02T08:58:12;99381.41;;;16.82;29.37
47809;BME280;33573;38.790;-77.084;2023-05-02T09:00:38;99377.82;;;17.08;29.42
47809;BME280;33573;38.790;-77.084;2023-05-02T09:03:08;99380.05;;;17.26;29.43
47809;BME280;33573;38.790;-77.084;2023-05-02T09:05:29;99380.89;;;16.94;29.52
47809;BME280;33573;38.790;-77.084;2023-05-02T09:07:54;99389.46;;;17.02;29.35
47809;BME280;33573;38.790;-77.084;2023-05-02T09:10:21;99392.28;;;17.11;29.41
47809;BME280;33573;38.790;-77.084;2023-05-02T09:12:45;99397.24;;;16.86;29.62
47809;BME280;33573;38.790;-77.084;2023-05-02T09:15:12;99395.73;;;17.36;29.21
47809;BME280;33573;38.790;-77.084;2023-05-02T09:17:40;99393.36;;;16.95;29.11
47809;BME280;33573;38.790;-77.084;2023-05-02T09:20:01;99394.54;;;16.84;29.44
47809;BME280;33573;38.790;-77.084;2023-05-02T09:22:32;99398.32;;;16.71;29.49
47809;BME280;33573;38.790;-77.084;2023-05-02T09:24:57;99404.38;;;17.14;29.73
47809;BME280;33573;38.790;-77.084;2023-05-02T09:27:22;99407.46;;;16.76;29.61
47809;BME280;33573;38.790;-77.084;2023-05-02T09:29:43;99411.01;;;16.45;29.83
47809;BME280;33573;38.790;-77.084;2023-05-02T09:32:28;99413.22;;;17.23;29.44
47809;BME280;33573;38.790;-77.084;2023-05-02T09:34:34;99409.60;;;17.05;29.48
47809;BME280;33573;38.790;-77.084;2023-05-02T09:37:04;99408.09;;;16.81;29.47
47809;BME280;33573;38.790;-77.084;2023-05-02T09:39:25;99409.06;;;17.25;28.89
47809;BME280;33573;38.790;-77.084;2023-05-02T09:41:55;99414.11;;;17.76;28.41
47809;BME280;33573;38.790;-77.084;2023-05-02T09:44:22;99414.41;;;18.16;27.95
47809;BME280;33573;38.790;-77.084;2023-05-02T09:46:47;99415.39;;;18.44;27.68
47809;BME280;33573;38.790;-77.084;2023-05-02T09:49:06;99418.50;;;18.54;27.64
47809;BME280;33573;38.790;-77.084;2023-05-02T09:51:37;99417.52;;;18.19;27.61
47809;BME280;33573;38.790;-77.084;2023-05-02T09:54:03;99421.43;;;18.72;27.65
47809;BME280;33573;38.790;-77.084;2023-05-02T09:56:22;99418.52;;;18.30;27.92
47809;BME280;33573;38.790;-77.084;2023-05-02T09:58:48;99421.89;;;17.80;28.62
47809;BME280;33573;38.790;-77.084;2023-05-02T10:01:15;99424.40;;;17.37;29.03
47809;BME280;33573;38.790;-77.084;2023-05-02T10:03:46;99426.86;;;17.61;28.80
47809;BME280;33573;38.790;-77.084;2023-05-02T10:06:04;99423.83;;;18.01;28.49
47809;BME280;33573;38.790;-77.084;2023-05-02T10:08:32;99428.34;;;18.43;28.09
47809;BME280;33573;38.790;-77.084;2023-05-02T10:11:03;99430.01;;;18.42;27.93
47809;BME280;33573;38.790;-77.084;2023-05-02T10:13:26;99438.88;;;18.51;27.75
47809;BME280;33573;38.790;-77.084;2023-05-02T10:15:49;99443.24;;;18.66;28.04
47809;BME280;33573;38.790;-77.084;2023-05-02T10:18:13;99444.14;;;17.94;28.27
47809;BME280;33573;38.790;-77.084;2023-05-02T10:20:37;99446.72;;;17.87;28.64
47809;BME280;33573;38.790;-77.084;2023-05-02T10:23:02;99447.31;;;17.95;28.81
47809;BME280;33573;38.790;-77.084;2023-05-02T10:25:32;99442.55;;;17.90;28.82
47809;BME280;33573;38.790;-77.084;2023-05-02T10:27:58;99446.51;;;18.05;28.80
47809;BME280;33573;38.790;-77.084;2023-05-02T10:30:18;99451.16;;;18.43;28.45
47809;BME280;33573;38.790;-77.084;2023-05-02T10:32:50;99451.50;;;18.18;28.57
47809;BME280;33573;38.790;-77.084;2023-05-02T10:35:09;99452.85;;;18.09;28.77
47809;BME280;33573;38.790;-77.084;2023-05-02T10:40:01;99457.31;;;17.73;28.98
47809;BME280;33573;38.790;-77.084;2023-05-02T10:42:31;99457.77;;;17.54;29.06
47809;BME280;33573;38.790;-77.084;2023-05-02T10:44:51;99460.48;;;17.88;29.15
47809;BME280;33573;38.790;-77.084;2023-05-02T10:47:20;99458.62;;;18.08;28.60
47809;BME280;33573;38.790;-77.084;2023-05-02T10:50:06;99458.04;;;18.66;28.17
47809;BME280;33573;38.790;-77.084;2023-05-02T10:52:24;99468.44;;;18.49;28.16
47809;BME280;33573;38.790;-77.084;2023-05-02T10:54:32;99465.96;;;18.44;28.39
47809;BME280;33573;38.790;-77.084;2023-05-02T10:57:03;99467.12;;;18.07;28.50
47809;BME280;33573;38.790;-77.084;2023-05-02T10:59:33;99473.03;;;18.21;28.90
47809;BME280;33573;38.790;-77.084;2023-05-02T11:01:54;99478.22;;;17.90;28.81
47809;BME280;33573;38.790;-77.084;2023-05-02T11:04:19;99480.76;;;17.73;28.91
47809;BME280;33573;38.790;-77.084;2023-05-02T11:11:40;99488.82;;;17.77;29.23
47809;BME280;33573;38.790;-77.084;2023-05-02T11:13:56;99497.57;;;18.43;28.92
47809;BME280;33573;38.790;-77.084;2023-05-02T11:16:26;99501.36;;;18.17;28.12
47809;BME280;33573;38.790;-77.084;2023-05-02T11:18:57;99504.32;;;16.77;28.66
47809;BME280;33573;38.790;-77.084;2023-05-02T11:21:25;99502.98;;;15.77;30.18
47809;BME280;33573;38.790;-77.084;2023-05-02T11:23:42;99507.45;;;16.52;30.01
47809;BME280;33573;38.790;-77.084;2023-05-02T11:28:39;99503.88;;;17.88;29.25
47809;BME280;33573;38.790;-77.084;2023-05-02T11:33:25;99503.93;;;18.16;28.27
47809;BME280;33573;38.790;-77.084;2023-05-02T11:35:45;99507.06;;;18.23;28.32
47809;BME280;33573;38.790;-77.084;2023-05-02T11:43:13;99504.22;;;18.42;28.65
47809;BME280;33573;38.790;-77.084;2023-05-02T12:26:43;99495.08;;;17.40;30.23
47809;BME280;33573;38.790;-77.084;2023-05-02T12:48:31;99476.50;;;17.77;30.01
47809;BME280;33573;38.790;-77.084;2023-05-02T12:50:58;99476.80;;;18.03;30.00
47809;BME280;33573;38.790;-77.084;2023-05-02T12:53:38;99481.08;;;17.66;30.09
47809;BME280;33573;38.790;-77.084;2023-05-02T13:12:47;99463.56;;;18.18;29.71
47809;BME280;33573;38.790;-77.084;2023-05-02T14:16:00;99463.83;;;17.87;29.85
47809;BME280;33573;38.790;-77.084;2023-05-02T14:18:08;99461.87;;;17.55;29.91
47809;BME280;33573;38.790;-77.084;2023-05-02T14:20:38;99461.65;;;17.82;29.79
47809;BME280;33573;38.790;-77.084;2023-05-02T14:23:04;99462.64;;;18.16;29.61
47809;BME280;33573;38.790;-77.084;2023-05-02T14:30:20;99468.97;;;18.50;28.65
47809;BME280;33573;38.790;-77.084;2023-05-02T14:49:40;99463.35;;;18.01;29.55
47809;BME280;33573;38.790;-77.084;2023-05-02T14:52:09;99467.69;;;17.87;29.44
47809;BME280;33573;38.790;-77.084;2023-05-02T15:33:16;99466.64;;;18.96;28.44
47809;BME280;33573;38.790;-77.084;2023-05-02T16:41:33;99447.58;;;18.32;28.87
47809;BME280;33573;38.790;-77.084;2023-05-02T16:48:29;99444.85;;;18.52;28.49
47809;BME280;33573;38.790;-77.084;2023-05-02T17:00:32;99428.81;;;17.86;29.39
47809;BME280;33573;38.790;-77.084;2023-05-02T17:03:01;99436.78;;;18.25;28.84
47809;BME280;33573;38.790;-77.084;2023-05-02T17:12:43;99433.35;;;18.42;28.49
47809;BME280;33573;38.790;-77.084;2023-05-02T17:17:34;99429.46;;;18.74;27.90
47809;BME280;33573;38.790;-77.084;2023-05-02T17:19:59;99436.52;;;19.06;28.07
47809;BME280;33573;38.790;-77.084;2023-05-02T17:34:32;99447.05;;;18.63;28.31
47809;BME280;33573;38.790;-77.084;2023-05-02T18:08:28;99485.92;;;19.01;27.79
47809;BME280;33573;38.790;-77.084;2023-05-02T18:10:53;99481.87;;;18.71;27.77
47809;BME280;33573;38.790;-77.084;2023-05-02T18:13:18;99487.63;;;18.86;27.99
47809;BME280;33573;38.790;-77.084;2023-05-02T18:49:59;99535.62;;;19.65;28.17
47809;BME280;33573;38.790;-77.084;2023-05-02T18:52:05;99533.15;;;19.57;28.26
47809;BME280;33573;38.790;-77.084;2023-05-02T18:54:30;99531.04;;;19.57;28.27
47809;BME280;33573;38.790;-77.084;2023-05-02T18:56:56;99529.26;;;19.56;28.29
47809;BME280;33573;38.790;-77.084;2023-05-02T18:59:21;99531.52;;;19.52;28.31
47809;BME280;33573;38.790;-77.084;2023-05-02T19:21:25;99512.33;;;19.96;28.21
47809;BME280;33573;38.790;-77.084;2023-05-02T19:23:36;99512.93;;;19.95;28.18
47809;BME280;33573;38.790;-77.084;2023-05-02T19:55:18;99535.53;;;19.96;28.42
47809;BME280;33573;38.790;-77.084;2023-05-02T20:09:34;99539.76;;;19.50;29.04
47809;BME280;33573;38.790;-77.084;2023-05-02T20:16:50;99542.83;;;19.19;29.68
47809;BME280;33573;38.790;-77.084;2023-05-02T20:19:15;99548.64;;;18.95;29.70
47809;BME280;33573;38.790;-77.084;2023-05-02T20:26:36;99554.08;;;19.15;29.53
47809;BME280;33573;38.790;-77.084;2023-05-02T20:48:22;99583.13;;;18.95;29.83
47809;BME280;33573;38.790;-77.084;2023-05-02T20:53:20;99595.27;;;18.80;29.96
47809;BME280;33573;38.790;-77.084;2023-05-02T21:19:52;99604.80;;;19.12;29.72
47809;BME280;33573;38.790;-77.084;2023-05-02T21:22:25;99603.88;;;19.12;29.54
47809;BME280;33573;38.790;-77.084;2023-05-02T21:37:12;99614.68;;;18.68;30.17
47809;BME280;33573;38.790;-77.084;2023-05-02T21:39:18;99621.98;;;18.76;29.99
47809;BME280;33573;38.790;-77.084;2023-05-02T22:03:32;99659.35;;;18.91;30.18
47809;BME280;33573;38.790;-77.084;2023-05-02T22:10:49;99673.51;;;19.38;29.38
47809;BME280;33573;38.790;-77.084;2023-05-02T22:27:46;99676.32;;;19.77;29.21
47809;BME280;33573;38.790;-77.084;2023-05-02T22:30:12;99676.41;;;19.94;29.07
47809;BME280;33573;38.790;-77.084;2023-05-02T22:56:52;99704.02;;;18.58;30.12
47809;BME280;33573;38.790;-77.084;2023-05-02T23:16:15;99733.82;;;19.05;29.07